Time;durP1;ratioP1;P1;durP2;ratioP2;P2;SDS_P1;SDS_P2;PMS_P1;PMS_P2;Temp;Humidity;BMP_temperature;BMP_pressure;BME280_temperature;BME280_humidity;BME280_pressure;Samples;Min_cycle;Max_cycle;Signal;HPM_P1;HPM_P2
2022/07/28 00:01:38;;;;;;;6.57;2.10;;;14.30;98.40;;;;;;5098042;28;20044;-65
2022/07/28 00:04:04;;;;;;;3.67;1.95;;;14.30;98.50;;;;;;5103113;28;20431;-65
2022/07/28 00:06:30;;;;;;;3.83;2.13;;;14.30;98.60;;;;;;5107358;28;20181;-66
2022/07/28 00:08:56;;;;;;;4.22;2.17;;;14.30;98.70;;;;;;5095766;28;20044;-65
2022/07/28 00:11:22;;;;;;;3.80;1.90;;;14.30;98.90;;;;;;5105027;28;20077;-65
2022/07/28 00:13:47;;;;;;;5.90;2.25;;;14.30;99.00;;;;;;5104686;28;20036;-65
2022/07/28 00:16:13;;;;;;;3.50;1.90;;;14.20;99.20;;;;;;5106428;28;20371;-66
2022/07/28 00:18:39;;;;;;;3.97;2.03;;;14.20;99.30;;;;;;5105375;28;20044;-66
2022/07/28 00:21:04;;;;;;;5.63;2.20;;;14.20;99.40;;;;;;5102575;28;20073;-66
2022/07/28 00:23:30;;;;;;;4.40;2.13;;;14.20;99.60;;;;;;5103176;28;20056;-65
2022/07/28 00:25:55;;;;;;;5.28;2.20;;;14.10;99.70;;;;;;5105790;28;20047;-66
2022/07/28 00:28:21;;;;;;;3.70;1.92;;;14.10;99.90;;;;;;5105147;28;20071;-66
2022/07/28 00:30:46;;;;;;;5.82;2.03;;;14.10;99.90;;;;;;5105757;28;20050;-66
2022/07/28 00:33:12;;;;;;;6.00;2.00;;;14.00;99.90;;;;;;5096291;28;20454;-66
2022/07/28 00:35:38;;;;;;;5.88;2.10;;;14.00;99.90;;;;;;5101390;28;20461;-66
2022/07/28 00:38:03;;;;;;;4.80;2.20;;;14.00;99.90;;;;;;5104786;28;20123;-66
2022/07/28 00:43:14;;;;;;;4.80;2.60;;;14.00;99.90;;;;;;5104079;28;20210;-65
2022/07/28 00:45:39;;;;;;;4.47;2.10;;;14.00;99.90;;;;;;5104630;28;20048;-65
2022/07/28 00:48:05;;;;;;;5.88;1.92;;;14.00;99.90;;;;;;5102603;28;20042;-65
2022/07/28 00:50:31;;;;;;;5.38;1.98;;;14.00;99.90;;;;;;5104261;28;20048;-66
2022/07/28 00:52:57;;;;;;;4.43;1.70;;;14.00;99.90;;;;;;5103683;28;20359;-65
2022/07/28 00:55:23;;;;;;;3.45;2.00;;;13.90;99.90;;;;;;5102295;28;20168;-65
2022/07/28 00:57:49;;;;;;;3.92;1.80;;;13.90;99.90;;;;;;5105551;28;20085;-65
2022/07/28 01:00:15;;;;;;;4.43;1.77;;;13.90;99.90;;;;;;5098157;28;20119;-65
2022/07/28 01:02:41;;;;;;;3.75;2.00;;;13.80;99.90;;;;;;5111796;27;20569;-65
2022/07/28 01:05:08;;;;;;;3.55;1.85;;;13.80;99.90;;;;;;5089120;28;20921;-65
2022/07/28 01:07:45;;;;;;;4.20;2.20;;;13.80;99.90;;;;;;5100694;28;20063;-66
2022/07/28 01:10:41;;;;;;;4.90;1.95;;;13.80;99.90;;;;;;5101717;28;20040;-65
2022/07/28 01:13:31;;;;;;;4.30;1.90;;;13.70;99.90;;;;;;5099608;27;21063;-66
2022/07/28 01:16:04;;;;;;;5.70;2.97;;;13.70;99.90;;;;;;5098716;28;20082;-65
2022/07/28 01:18:42;;;;;;;6.32;2.72;;;13.70;99.90;;;;;;5104821;28;20069;-65
2022/07/28 01:21:11;;;;;;;5.72;2.80;;;13.60;99.90;;;;;;5101913;28;20150;-66
2022/07/28 01:24:06;;;;;;;6.45;3.20;;;13.60;99.90;;;;;;5099665;28;20079;-66
2022/07/28 01:26:58;;;;;;;6.32;3.90;;;13.60;99.90;;;;;;5105110;28;20447;-65
2022/07/28 01:29:56;;;;;;;6.03;3.63;;;13.60;99.90;;;;;;5103892;28;20968;-65
2022/07/28 01:32:25;;;;;;;6.95;4.05;;;13.50;99.90;;;;;;5100090;28;20142;-65
2022/07/28 01:34:54;;;;;;;7.80;4.30;;;13.50;99.90;;;;;;5098594;28;20040;-65
2022/07/28 01:37:28;;;;;;;7.00;3.78;;;13.50;99.90;;;;;;5102756;28;20351;-65
2022/07/28 01:39:58;;;;;;;6.95;3.50;;;13.50;99.90;;;;;;5099913;28;20036;-65
2022/07/28 01:42:30;;;;;;;8.52;3.60;;;13.50;99.90;;;;;;5103530;28;20114;-65
2022/07/28 01:44:58;;;;;;;5.40;3.25;;;13.50;99.90;;;;;;5103074;28;20044;-65
2022/07/28 01:47:26;;;;;;;6.18;3.00;;;13.50;99.90;;;;;;5103657;28;20478;-65
2022/07/28 01:49:54;;;;;;;6.20;3.85;;;13.50;99.90;;;;;;5102219;28;20426;-65
2022/07/28 01:52:22;;;;;;;6.22;3.53;;;13.50;99.90;;;;;;5102001;28;20048;-65
2022/07/28 01:54:49;;;;;;;6.88;3.40;;;13.40;99.90;;;;;;5097584;28;20043;-65
2022/07/28 01:57:17;;;;;;;5.93;3.22;;;13.30;99.90;;;;;;5104166;28;20108;-65
2022/07/28 01:59:43;;;;;;;5.35;2.70;;;13.40;99.90;;;;;;5097630;28;20036;-65
2022/07/28 02:02:09;;;;;;;7.57;2.85;;;13.30;99.90;;;;;;5101208;28;20040;-65
2022/07/28 02:04:38;;;;;;;5.47;3.00;;;13.40;99.90;;;;;;5101057;28;20035;-65
2022/07/28 02:07:04;;;;;;;6.72;2.95;;;13.30;99.90;;;;;;5098888;28;20505;-65
2022/07/28 02:09:33;;;;;;;6.30;2.88;;;13.30;99.90;;;;;;5102035;28;20047;-65
2022/07/28 02:12:00;;;;;;;6.15;2.65;;;13.30;99.90;;;;;;5102457;28;20078;-65
2022/07/28 02:14:28;;;;;;;5.20;2.55;;;13.30;99.90;;;;;;5106235;28;20050;-66
2022/07/28 02:16:57;;;;;;;7.18;2.65;;;13.30;99.90;;;;;;5105496;28;20074;-65
2022/07/28 02:19:25;;;;;;;4.70;2.40;;;13.30;99.90;;;;;;5102962;28;20379;-65
2022/07/28 02:21:53;;;;;;;4.82;2.60;;;13.20;99.90;;;;;;5102349;28;20494;-65
2022/07/28 02:24:22;;;;;;;7.13;2.70;;;13.20;99.90;;;;;;5102245;28;20075;-66
2022/07/28 02:27:14;;;;;;;5.25;2.60;;;13.20;99.90;;;;;;5104374;28;20050;-66
2022/07/28 02:29:51;;;;;;;4.88;2.60;;;13.10;99.90;;;;;;5092949;28;20105;-66
2022/07/28 02:32:47;;;;;;;5.55;2.75;;;13.10;99.90;;;;;;5104895;28;20051;-66
2022/07/28 02:35:32;;;;;;;5.63;2.40;;;13.10;99.90;;;;;;5102092;28;20058;-66
2022/07/28 02:38:00;;;;;;;;;;;13.00;99.90;;;;;;5102610;28;20154;-66
2022/07/28 02:40:32;;;;;;;4.88;2.50;;;13.00;99.90;;;;;;5103912;28;19930;-66
2022/07/28 02:43:00;;;;;;;5.28;2.50;;;12.90;99.90;;;;;;5099039;28;20047;-66
2022/07/28 02:45:27;;;;;;;4.72;2.65;;;12.90;99.90;;;;;;5103783;28;20490;-66
2022/07/28 02:47:56;;;;;;;4.40;2.47;;;12.90;99.90;;;;;;5101382;28;20508;-65
2022/07/28 02:50:26;;;;;;;4.50;2.30;;;12.90;99.90;;;;;;5098985;28;20585;-66
2022/07/28 02:53:01;;;;;;;5.05;2.85;;;12.80;99.90;;;;;;5100968;28;20035;-65
2022/07/28 02:55:27;;;;;;;;;;;12.80;99.90;;;;;;5099756;28;20040;-66
2022/07/28 02:57:54;;;;;;;3.97;2.45;;;12.80;99.90;;;;;;5103343;28;20018;-66
2022/07/28 03:00:21;;;;;;;4.70;2.63;;;12.70;99.90;;;;;;5100727;28;20039;-66
2022/07/28 03:02:48;;;;;;;5.75;2.60;;;12.70;99.90;;;;;;5099656;28;20043;-66
2022/07/28 03:05:15;;;;;;;4.38;2.50;;;12.70;99.90;;;;;;5101019;28;20040;-65
2022/07/28 03:07:41;;;;;;;4.68;2.63;;;12.70;99.90;;;;;;5098028;28;20088;-66
2022/07/28 03:10:08;;;;;;;4.38;2.30;;;12.60;99.90;;;;;;5094590;28;20055;-65
2022/07/28 03:12:34;;;;;;;4.13;2.60;;;12.60;99.90;;;;;;5100345;28;20120;-66
2022/07/28 03:14:59;;;;;;;5.03;2.80;;;12.60;99.90;;;;;;5096478;28;20044;-66
2022/07/28 03:17:26;;;;;;;3.45;2.10;;;12.60;99.90;;;;;;5096935;28;20038;-65
2022/07/28 03:19:51;;;;;;;4.93;2.20;;;12.50;99.90;;;;;;5093883;28;20043;-66
2022/07/28 03:22:17;;;;;;;3.47;1.80;;;12.50;99.90;;;;;;5095103;28;20040;-65
2022/07/28 03:24:47;;;;;;;4.65;2.28;;;12.40;99.90;;;;;;5102834;28;20509;-65
2022/07/28 03:27:24;;;;;;;5.47;2.65;;;12.40;99.90;;;;;;5101722;28;20036;-65
2022/07/28 03:30:12;;;;;;;4.75;2.40;;;12.40;99.90;;;;;;5096815;28;20118;-65
2022/07/28 03:32:45;;;;;;;5.43;2.38;;;12.40;99.90;;;;;;5098962;28;20110;-67
2022/07/28 03:35:12;;;;;;;3.67;2.20;;;12.40;99.90;;;;;;5096665;28;20044;-67
2022/07/28 03:37:54;;;;;;;3.63;2.10;;;12.40;99.90;;;;;;5098851;28;20143;-67
2022/07/28 03:40:24;;;;;;;4.80;2.35;;;12.40;99.90;;;;;;5104543;28;20039;-67
2022/07/28 03:42:51;;;;;;;4.82;2.72;;;12.30;99.90;;;;;;5103900;28;20080;-66
2022/07/28 03:45:17;;;;;;;4.82;2.63;;;12.20;99.90;;;;;;5108972;28;20046;-67
2022/07/28 03:47:52;;;;;;;5.35;2.65;;;12.30;99.90;;;;;;5107989;28;20434;-66
2022/07/28 03:50:24;;;;;;;5.57;2.67;;;12.40;99.90;;;;;;5095378;28;20051;-67
2022/07/28 03:52:51;;;;;;;5.20;2.60;;;12.30;99.90;;;;;;5106387;28;20066;-67
2022/07/28 03:55:17;;;;;;;4.05;2.47;;;12.30;99.90;;;;;;5103732;28;20039;-67
2022/07/28 03:57:42;;;;;;;5.28;2.70;;;12.30;99.90;;;;;;5103276;28;20055;-67
2022/07/28 04:00:09;;;;;;;8.88;4.35;;;12.30;99.90;;;;;;5104695;28;20179;-67
2022/07/28 04:02:36;;;;;;;5.97;4.03;;;12.30;99.90;;;;;;5105650;28;20054;-67
2022/07/28 04:05:01;;;;;;;7.75;4.80;;;12.30;99.90;;;;;;5100048;28;20088;-67
2022/07/28 04:07:27;;;;;;;9.63;6.28;;;12.30;99.90;;;;;;5105648;28;20044;-67
2022/07/28 04:09:52;;;;;;;10.95;7.30;;;12.20;99.90;;;;;;5102923;28;20355;-66
2022/07/28 04:12:18;;;;;;;11.38;7.30;;;12.20;99.90;;;;;;5105688;28;20035;-66
2022/07/28 04:14:43;;;;;;;13.48;8.65;;;12.20;99.90;;;;;;5099743;28;20138;-67
2022/07/28 04:17:09;;;;;;;12.52;8.88;;;12.20;99.90;;;;;;5105626;28;20055;-67
2022/07/28 04:19:34;;;;;;;11.25;8.10;;;12.20;99.90;;;;;;5102018;28;20051;-67
2022/07/28 04:22:00;;;;;;;11.30;7.43;;;12.20;99.90;;;;;;5103269;28;20035;-66
2022/07/28 04:24:26;;;;;;;8.80;5.35;;;12.10;99.90;;;;;;5099900;28;20130;-66
2022/07/28 04:26:51;;;;;;;8.40;4.90;;;12.10;99.90;;;;;;5104245;28;20055;-66
2022/07/28 04:29:17;;;;;;;10.50;6.07;;;12.10;99.90;;;;;;5107167;28;20047;-66
2022/07/28 04:31:43;;;;;;;8.85;6.10;;;12.10;99.90;;;;;;5101763;28;20039;-66
2022/07/28 04:34:09;;;;;;;10.65;7.15;;;12.10;99.90;;;;;;5098864;28;20486;-67
2022/07/28 04:36:40;;;;;;;11.07;7.13;;;12.10;99.90;;;;;;5107831;28;20038;-66
2022/07/28 04:39:07;;;;;;;11.32;6.85;;;12.20;99.90;;;;;;5105149;28;20089;-66
2022/07/28 04:41:33;;;;;;;9.43;6.55;;;12.20;99.90;;;;;;5104141;27;20359;-66
2022/07/28 04:43:59;;;;;;;11.13;6.63;;;12.20;99.90;;;;;;5103073;28;20114;-67
2022/07/28 04:46:25;;;;;;;13.20;7.18;;;12.20;99.90;;;;;;5103029;28;20138;-66
2022/07/28 04:48:50;;;;;;;12.13;7.22;;;12.30;99.90;;;;;;5104022;28;20044;-67
2022/07/28 04:51:16;;;;;;;11.50;7.32;;;12.30;99.90;;;;;;5101001;28;20494;-66
2022/07/28 04:53:42;;;;;;;10.18;6.40;;;12.40;99.90;;;;;;5105080;28;20328;-67
2022/07/28 04:56:08;;;;;;;9.43;5.85;;;12.40;99.90;;;;;;5102082;28;20356;-66
2022/07/28 04:58:33;;;;;;;9.30;5.70;;;12.50;99.90;;;;;;5107722;28;20075;-67
2022/07/28 05:00:59;;;;;;;9.95;4.50;;;12.60;99.90;;;;;;5100951;28;20512;-66
2022/07/28 05:03:25;;;;;;;8.40;4.05;;;12.60;99.90;;;;;;5080783;28;20085;-67
2022/07/28 05:05:51;;;;;;;6.88;3.40;;;12.80;99.90;;;;;;5099740;28;20062;-67
2022/07/28 05:08:16;;;;;;;5.95;3.50;;;13.00;99.90;;;;;;5104611;28;20143;-67
2022/07/28 05:10:42;;;;;;;6.05;3.50;;;13.20;99.90;;;;;;5106917;27;20119;-67
2022/07/28 05:13:08;;;;;;;8.15;3.50;;;13.30;99.90;;;;;;5106149;28;20146;-66
2022/07/28 05:15:33;;;;;;;6.05;3.40;;;13.50;99.90;;;;;;5105198;28;20063;-67
2022/07/28 05:17:59;;;;;;;5.15;3.03;;;13.80;99.90;;;;;;5105014;28;20044;-66
2022/07/28 05:20:25;;;;;;;6.78;3.28;;;14.00;99.90;;;;;;5098494;27;20059;-67
2022/07/28 05:22:52;;;;;;;6.72;3.75;;;14.30;99.90;;;;;;5098940;28;20488;-67
2022/07/28 05:25:20;;;;;;;6.93;3.63;;;14.50;99.90;;;;;;5101333;28;20459;-67
2022/07/28 05:27:47;;;;;;;6.68;2.97;;;14.70;99.90;;;;;;5102494;28;20044;-67
2022/07/28 05:30:14;;;;;;;4.88;2.78;;;14.90;99.90;;;;;;5104456;28;20039;-66
2022/07/28 05:32:39;;;;;;;8.13;3.00;;;15.10;99.90;;;;;;5085319;28;20035;-67
2022/07/28 05:35:06;;;;;;;5.97;2.80;;;15.30;99.90;;;;;;5102153;28;20111;-66
2022/07/28 05:37:33;;;;;;;7.00;2.83;;;15.60;99.90;;;;;;5103803;28;20040;-67
2022/07/28 05:39:59;;;;;;;4.00;2.13;;;15.70;99.90;;;;;;5101972;28;20501;-67
2022/07/28 05:42:27;;;;;;;5.88;2.58;;;15.90;99.90;;;;;;5104936;28;20118;-66
2022/07/28 05:44:53;;;;;;;7.30;2.72;;;16.10;99.90;;;;;;5100200;28;20486;-68
2022/07/28 05:47:19;;;;;;;6.43;2.25;;;16.20;99.90;;;;;;5103175;28;20154;-66
2022/07/28 05:49:44;;;;;;;4.35;2.42;;;16.20;99.90;;;;;;5103937;28;20115;-67
2022/07/28 05:52:10;;;;;;;4.78;2.33;;;16.30;99.90;;;;;;5097489;28;20493;-67
2022/07/28 05:54:35;;;;;;;5.55;2.10;;;16.30;99.90;;;;;;5100619;28;20036;-67
2022/07/28 05:57:01;;;;;;;7.53;2.00;;;16.30;99.90;;;;;;5107256;28;20042;-66
2022/07/28 05:59:26;;;;;;;5.55;2.13;;;16.30;99.90;;;;;;5101124;28;20386;-66
2022/07/28 06:01:52;;;;;;;4.93;2.00;;;16.40;99.90;;;;;;5100708;28;20036;-66
2022/07/28 06:04:18;;;;;;;5.38;2.28;;;16.40;99.90;;;;;;5099851;28;20051;-65
2022/07/28 06:06:43;;;;;;;5.93;2.05;;;16.40;99.90;;;;;;5106595;27;20035;-66
2022/07/28 06:09:09;;;;;;;5.13;2.35;;;16.40;99.90;;;;;;5102993;27;20135;-66
2022/07/28 06:11:34;;;;;;;5.25;2.13;;;16.50;99.90;;;;;;5106111;28;20043;-66
2022/07/28 06:14:00;;;;;;;5.18;1.73;;;16.50;99.90;;;;;;5107236;28;20417;-66
2022/07/28 06:16:26;;;;;;;6.22;2.08;;;16.50;99.90;;;;;;5106652;28;20039;-67
2022/07/28 06:18:52;;;;;;;7.10;1.95;;;16.50;99.90;;;;;;5102691;28;20048;-66
2022/07/28 06:21:17;;;;;;;3.58;1.92;;;16.50;99.90;;;;;;5104744;28;20104;-66
2022/07/28 06:23:44;;;;;;;6.55;2.00;;;16.50;99.90;;;;;;5101669;28;20070;-66
2022/07/28 06:26:09;;;;;;;5.03;2.30;;;16.60;99.90;;;;;;5102291;28;20138;-66
2022/07/28 06:28:35;;;;;;;4.20;2.03;;;16.60;99.90;;;;;;5105690;27;20469;-66
2022/07/28 06:31:00;;;;;;;4.82;2.03;;;16.60;99.90;;;;;;5101410;28;20069;-66
2022/07/28 06:33:26;;;;;;;5.70;2.25;;;16.60;99.90;;;;;;5102336;28;20028;-66
2022/07/28 06:35:52;;;;;;;5.32;2.25;;;16.60;99.90;;;;;;5105819;28;20058;-66
2022/07/28 06:38:19;;;;;;;5.18;2.17;;;16.70;99.90;;;;;;5105033;28;20127;-66
2022/07/28 06:40:44;;;;;;;4.88;2.03;;;16.70;99.90;;;;;;5109126;28;20119;-66
2022/07/28 06:43:12;;;;;;;7.28;2.40;;;16.80;99.90;;;;;;5105313;28;20091;-66
2022/07/28 06:45:39;;;;;;;6.55;2.10;;;16.80;99.90;;;;;;5103685;28;20096;-66
2022/07/28 06:48:06;;;;;;;5.07;2.35;;;16.90;99.90;;;;;;5104238;28;20481;-66
2022/07/28 06:50:32;;;;;;;5.57;2.20;;;17.10;99.90;;;;;;5106140;28;20054;-66
2022/07/28 06:52:58;;;;;;;7.15;2.20;;;17.20;99.90;;;;;;5101013;28;20118;-66
2022/07/28 06:55:23;;;;;;;4.22;2.00;;;17.20;99.90;;;;;;5106244;28;20499;-68
2022/07/28 06:57:49;;;;;;;6.30;2.10;;;17.20;99.90;;;;;;5107019;28;20051;-66
2022/07/28 07:00:15;;;;;;;6.32;2.20;;;17.30;99.90;;;;;;5104887;28;20222;-67
2022/07/28 07:02:41;;;;;;;3.67;1.83;;;17.30;99.90;;;;;;5102399;28;20074;-65
2022/07/28 07:05:08;;;;;;;5.65;2.10;;;17.50;99.90;;;;;;5097077;28;20032;-65
2022/07/28 07:07:34;;;;;;;4.00;1.92;;;17.70;99.90;;;;;;5106025;28;20602;-65
2022/07/28 07:09:59;;;;;;;5.45;1.88;;;17.90;99.90;;;;;;5108916;28;20051;-65
2022/07/28 07:12:25;;;;;;;5.18;1.85;;;18.00;99.90;;;;;;5109345;28;20123;-65
2022/07/28 07:14:50;;;;;;;4.93;1.92;;;18.10;99.90;;;;;;5109746;28;20083;-65
2022/07/28 07:17:16;;;;;;;5.25;1.80;;;18.20;99.90;;;;;;5109892;28;20447;-65
2022/07/28 07:19:42;;;;;;;5.32;1.70;;;18.30;99.90;;;;;;5106835;28;20048;-65
2022/07/28 07:22:07;;;;;;;6.15;2.10;;;18.40;99.90;;;;;;5108658;28;20043;-66
2022/07/28 07:24:33;;;;;;;6.50;2.20;;;18.50;99.90;;;;;;5104025;28;20044;-65
2022/07/28 07:26:58;;;;;;;5.85;2.35;;;18.60;99.90;;;;;;5110816;28;20050;-65
2022/07/28 07:29:24;;;;;;;5.93;2.00;;;18.70;99.70;;;;;;5109563;28;20031;-65
2022/07/28 07:31:49;;;;;;;3.88;1.75;;;18.70;99.00;;;;;;5111615;28;20187;-66
2022/07/28 07:34:15;;;;;;;7.85;1.40;;;18.70;98.90;;;;;;5107570;28;20067;-66
2022/07/28 07:36:41;;;;;;;4.55;1.40;;;18.70;98.50;;;;;;5106016;28;20047;-66
2022/07/28 07:39:06;;;;;;;8.38;1.70;;;18.80;98.50;;;;;;5108868;28;20038;-68
2022/07/28 07:41:32;;;;;;;5.75;1.45;;;19.00;98.50;;;;;;5110787;28;20066;-67
2022/07/28 07:43:58;;;;;;;5.70;1.42;;;19.10;98.40;;;;;;5110129;28;20124;-67
2022/07/28 07:46:23;;;;;;;3.85;1.10;;;19.30;98.00;;;;;;5109956;28;20039;-66
2022/07/28 07:48:49;;;;;;;4.50;1.10;;;19.30;97.80;;;;;;5109257;28;20309;-66
2022/07/28 07:51:14;;;;;;;4.25;1.20;;;19.40;97.80;;;;;;5109948;28;20051;-67
2022/07/28 07:53:40;;;;;;;3.55;1.05;;;19.50;97.50;;;;;;5108252;28;20401;-66
2022/07/28 07:56:05;;;;;;;4.28;1.15;;;19.50;97.10;;;;;;5109479;28;20039;-67
2022/07/28 07:58:31;;;;;;;4.78;1.08;;;19.50;96.70;;;;;;5107544;28;20142;-66
2022/07/28 08:00:56;;;;;;;7.25;1.42;;;19.50;96.30;;;;;;5107346;28;20080;-66
2022/07/28 08:03:22;;;;;;;3.78;0.90;;;19.50;96.30;;;;;;5107102;28;20035;-66
2022/07/28 08:05:48;;;;;;;3.80;1.40;;;19.40;95.50;;;;;;5106916;28;20498;-68
2022/07/28 08:08:14;;;;;;;5.95;1.20;;;19.50;95.70;;;;;;5105346;28;20070;-64
2022/07/28 08:10:40;;;;;;;3.95;1.10;;;19.50;95.30;;;;;;5110812;28;20078;-66
2022/07/28 08:13:06;;;;;;;3.65;1.15;;;19.60;95.40;;;;;;5108084;28;20043;-65
2022/07/28 08:15:33;;;;;;;4.70;0.90;;;19.70;94.90;;;;;;5107198;28;20067;-66
2022/07/28 08:17:59;;;;;;;3.03;1.00;;;19.80;94.40;;;;;;5106189;28;20093;-65
2022/07/28 08:20:25;;;;;;;2.53;0.90;;;19.90;94.20;;;;;;5108872;27;20418;-65
2022/07/28 08:22:52;;;;;;;4.15;0.95;;;19.70;93.40;;;;;;5108596;28;20150;-65
2022/07/28 08:25:19;;;;;;;4.63;0.90;;;19.80;93.50;;;;;;5108044;28;20169;-66
2022/07/28 08:27:45;;;;;;;3.58;0.88;;;19.80;92.90;;;;;;5108332;28;20062;-65
2022/07/28 08:30:13;;;;;;;4.20;0.90;;;19.80;92.50;;;;;;5106918;28;20389;-65
2022/07/28 08:32:39;;;;;;;5.80;1.00;;;19.70;92.50;;;;;;5101470;28;20036;-65
2022/07/28 08:35:06;;;;;;;3.30;0.90;;;19.80;92.40;;;;;;5103461;28;20497;-65
2022/07/28 08:37:31;;;;;;;3.55;1.00;;;20.00;92.50;;;;;;5097182;28;20142;-65
2022/07/28 08:39:57;;;;;;;2.97;1.02;;;20.10;91.60;;;;;;5098702;27;20134;-65
2022/07/28 08:42:37;;;;;;;4.65;0.90;;;20.30;91.50;;;;;;5107091;28;20104;-65
2022/07/28 08:45:05;;;;;;;2.03;0.90;;;20.50;90.50;;;;;;5104067;28;20131;-65
2022/07/28 08:47:33;;;;;;;3.25;1.08;;;20.60;90.40;;;;;;5109403;28;20417;-65
2022/07/28 08:49:59;;;;;;;3.60;1.00;;;20.60;90.10;;;;;;5104891;28;20512;-65
2022/07/28 08:52:28;;;;;;;2.28;1.00;;;20.70;90.10;;;;;;5108112;28;20497;-66
2022/07/28 08:54:56;;;;;;;3.22;1.15;;;20.80;90.70;;;;;;5109161;28;20150;-66
2022/07/28 08:57:29;;;;;;;3.88;0.90;;;20.90;90.70;;;;;;5108768;28;20135;-66
2022/07/28 08:59:56;;;;;;;4.68;0.90;;;21.10;88.80;;;;;;5106852;28;20088;-66
2022/07/28 09:02:25;;;;;;;3.60;1.00;;;21.30;90.20;;;;;;5106238;28;20473;-66
2022/07/28 09:04:54;;;;;;;2.95;0.80;;;21.50;89.20;;;;;;5104225;28;20551;-66
2022/07/28 09:07:20;;;;;;;4.22;0.90;;;21.60;88.30;;;;;;5108431;28;20046;-68
2022/07/28 09:09:48;;;;;;;2.65;0.90;;;21.60;87.00;;;;;;5105572;28;20078;-69
2022/07/28 09:12:13;;;;;;;4.53;1.00;;;21.60;85.90;;;;;;5107197;28;20044;-66
2022/07/28 09:14:39;;;;;;;1.70;0.63;;;21.60;86.50;;;;;;5101480;28;20050;-66
2022/07/28 09:17:05;;;;;;;3.28;1.10;;;21.60;85.80;;;;;;5101347;28;20381;-66
2022/07/28 09:19:31;;;;;;;4.40;0.95;;;21.50;84.20;;;;;;5106550;28;20035;-66
2022/07/28 09:21:58;;;;;;;2.60;0.80;;;21.60;84.20;;;;;;5107396;28;20470;-66
2022/07/28 09:24:38;;;;;;;4.28;0.90;;;21.60;83.60;;;;;;5108959;28;20237;-65
2022/07/28 09:27:06;;;;;;;6.25;1.10;;;21.60;83.90;;;;;;5100629;28;20454;-66
2022/07/28 09:29:33;;;;;;;2.78;0.90;;;21.80;82.80;;;;;;5105332;28;20043;-65
2022/07/28 09:31:59;;;;;;;4.50;1.00;;;22.10;82.70;;;;;;5095260;28;20441;-66
2022/07/28 09:34:25;;;;;;;3.13;1.00;;;22.20;82.50;;;;;;5105313;28;20043;-66
2022/07/28 09:36:51;;;;;;;3.45;1.00;;;22.50;81.70;;;;;;5107031;28;20079;-65
2022/07/28 09:39:33;;;;;;;2.65;0.75;;;22.60;80.60;;;;;;5105636;28;20035;-65
2022/07/28 09:41:59;;;;;;;2.92;1.13;;;22.70;80.60;;;;;;5108217;28;20047;-65
2022/07/28 09:44:27;;;;;;;3.95;1.00;;;22.40;78.00;;;;;;5106065;28;20126;-66
2022/07/28 09:46:54;;;;;;;3.75;0.90;;;22.20;79.00;;;;;;5102401;28;20172;-66
2022/07/28 09:49:19;;;;;;;2.30;0.80;;;22.20;79.30;;;;;;5084765;28;20096;-67
2022/07/28 09:52:00;;;;;;;1.75;0.80;;;22.10;78.30;;;;;;5105606;28;20135;-67
2022/07/28 09:54:26;;;;;;;3.72;1.00;;;21.90;78.50;;;;;;5107127;28;20486;-66
2022/07/28 09:56:52;;;;;;;2.00;0.70;;;21.70;77.70;;;;;;5105555;28;20035;-66
2022/07/28 09:59:18;;;;;;;4.53;1.10;;;21.60;78.60;;;;;;5101718;28;20058;-66
2022/07/28 10:01:51;;;;;;;2.97;0.80;;;21.50;78.10;;;;;;5098353;28;20482;-66
2022/07/28 10:04:40;;;;;;;3.03;0.90;;;21.60;76.40;;;;;;5103890;28;20046;-66
2022/07/28 10:07:15;;;;;;;3.40;0.88;;;21.90;78.40;;;;;;5101122;28;20447;-66
2022/07/28 10:09:42;;;;;;;1.80;0.70;;;22.00;78.00;;;;;;5097980;28;20367;-66
2022/07/28 10:12:18;;;;;;;4.57;1.00;;;22.10;77.20;;;;;;5103896;28;20122;-65
2022/07/28 10:14:45;;;;;;;3.00;0.80;;;22.20;77.60;;;;;;5105543;28;20043;-66
2022/07/28 10:17:21;;;;;;;2.83;1.02;;;22.20;76.80;;;;;;5098850;28;20044;-65
2022/07/28 10:19:47;;;;;;;2.67;0.68;;;22.20;75.90;;;;;;5106086;28;20050;-65
2022/07/28 10:22:16;;;;;;;2.03;0.90;;;22.00;75.70;;;;;;5108809;28;20447;-65
2022/07/28 10:24:45;;;;;;;2.40;0.95;;;22.00;75.90;;;;;;5103263;28;20162;-65
2022/07/28 10:27:11;;;;;;;2.63;0.82;;;22.10;75.80;;;;;;5105925;28;20058;-65
2022/07/28 10:29:39;;;;;;;4.68;0.90;;;22.10;74.90;;;;;;5107957;28;20490;-65
2022/07/28 10:32:05;;;;;;;2.90;0.85;;;22.10;75.40;;;;;;5105686;28;20039;-65
2022/07/28 10:34:57;;;;;;;2.03;0.90;;;22.10;75.50;;;;;;5082020;28;20072;-65
2022/07/28 10:37:26;;;;;;;3.00;0.95;;;22.10;75.90;;;;;;5087730;28;20043;-65
2022/07/28 10:40:07;;;;;;;3.55;1.10;;;22.10;75.60;;;;;;5105533;28;20035;-65
2022/07/28 10:42:34;;;;;;;3.72;1.00;;;22.10;74.60;;;;;;5106487;28;20051;-65
2022/07/28 10:45:01;;;;;;;2.10;0.82;;;22.10;74.80;;;;;;5108884;28;20331;-65
2022/07/28 10:47:27;;;;;;;4.07;1.00;;;22.30;75.20;;;;;;5110782;28;20039;-65
2022/07/28 10:49:53;;;;;;;4.70;1.00;;;22.50;75.70;;;;;;5107493;28;20058;-67
2022/07/28 10:52:20;;;;;;;2.88;0.80;;;22.80;75.60;;;;;;5112118;28;20134;-68
2022/07/28 10:54:54;;;;;;;4.05;1.00;;;23.00;74.70;;;;;;5110931;27;20140;-67
2022/07/28 10:57:22;;;;;;;2.00;0.82;;;23.10;73.30;;;;;;5110580;28;20126;-66
2022/07/28 11:00:24;;;;;;;2.75;1.00;;;23.10;73.10;;;;;;5113105;27;20456;-68
2022/07/28 11:03:00;;;;;;;3.17;0.90;;;23.00;72.40;;;;;;5049608;28;22032;-65
2022/07/28 11:05:26;;;;;;;3.90;0.90;;;23.00;72.20;;;;;;5104341;27;20044;-66
2022/07/28 11:07:52;;;;;;;3.10;1.02;;;23.10;72.10;;;;;;5110104;27;20255;-65
2022/07/28 11:10:19;;;;;;;2.78;0.85;;;23.20;72.50;;;;;;5110305;28;20104;-66
2022/07/28 11:12:50;;;;;;;2.53;0.93;;;23.30;72.40;;;;;;5111301;28;20035;-66
2022/07/28 11:15:26;;;;;;;3.53;0.93;;;23.20;70.90;;;;;;5109211;28;20051;-66
2022/07/28 11:18:18;;;;;;;3.13;0.93;;;22.70;70.20;;;;;;5113160;28;20051;-66
2022/07/28 11:20:50;;;;;;;4.55;0.82;;;22.70;71.30;;;;;;5108118;27;20060;-68
2022/07/28 11:23:39;;;;;;;2.22;0.90;;;22.60;70.50;;;;;;5104846;28;20127;-69
2022/07/28 11:26:19;;;;;;;5.88;1.05;;;22.60;69.40;;;;;;5112835;28;20058;-68
2022/07/28 11:29:04;;;;;;;2.30;0.80;;;22.50;69.90;;;;;;5110796;28;20066;-69
2022/07/28 11:31:45;;;;;;;2.08;0.77;;;22.60;71.50;;;;;;5114597;28;20046;-69
2022/07/28 11:34:12;;;;;;;3.17;0.90;;;22.80;71.70;;;;;;5106372;28;20040;-69
2022/07/28 11:36:56;;;;;;;2.80;0.93;;;22.80;71.20;;;;;;5112106;28;20051;-69
2022/07/28 11:39:23;;;;;;;1.93;0.73;;;23.00;70.30;;;;;;5114508;28;20075;-69
2022/07/28 11:41:48;;;;;;;2.45;0.85;;;22.80;70.40;;;;;;5095832;28;20080;-68
2022/07/28 11:44:34;;;;;;;2.75;0.90;;;22.70;70.70;;;;;;5111288;28;20047;-69
2022/07/28 11:47:18;;;;;;;1.95;0.80;;;23.10;70.00;;;;;;5112903;27;20118;-69
2022/07/28 11:50:05;;;;;;;5.05;0.90;;;23.20;70.50;;;;;;5111160;28;20044;-69
2022/07/28 11:52:31;;;;;;;3.20;0.90;;;23.30;69.80;;;;;;5113994;28;20044;-69
2022/07/28 11:54:57;;;;;;;1.70;0.80;;;23.50;69.00;;;;;;5108368;27;20043;-69
2022/07/28 11:57:24;;;;;;;2.03;0.80;;;23.60;68.30;;;;;;5108924;28;20377;-69
2022/07/28 11:59:53;;;;;;;3.17;0.80;;;23.80;68.60;;;;;;5109765;28;20043;-71
2022/07/28 12:02:27;;;;;;;1.80;0.80;;;23.90;67.40;;;;;;5108590;28;20039;-69
2022/07/28 12:05:02;;;;;;;4.22;1.38;;;24.00;66.60;;;;;;5106501;28;20632;-68
2022/07/28 12:07:32;;;;;;;3.42;1.13;;;23.90;66.70;;;;;;5105650;28;20454;-67
2022/07/28 12:09:58;;;;;;;3.28;1.00;;;23.80;66.20;;;;;;5107732;28;20070;-71
2022/07/28 12:12:26;;;;;;;4.63;1.00;;;23.80;66.80;;;;;;5108133;28;20150;-69
2022/07/28 12:14:54;;;;;;;2.13;0.82;;;23.90;66.20;;;;;;5109356;28;20075;-70
2022/07/28 12:17:20;;;;;;;3.72;0.98;;;24.20;66.60;;;;;;5106098;28;20126;-69
2022/07/28 12:19:46;;;;;;;3.42;0.90;;;24.30;66.20;;;;;;5097105;28;20043;-69
2022/07/28 12:22:12;;;;;;;2.47;0.90;;;24.50;65.30;;;;;;5110555;28;20050;-68
2022/07/28 12:24:38;;;;;;;2.08;0.80;;;24.60;65.50;;;;;;5107692;28;20054;-70
2022/07/28 12:27:04;;;;;;;3.95;0.85;;;24.40;64.70;;;;;;5108997;28;20051;-69
2022/07/28 12:29:30;;;;;;;4.40;1.15;;;24.30;64.20;;;;;;5109766;28;20039;-68
2022/07/28 12:32:00;;;;;;;4.90;1.02;;;24.30;63.90;;;;;;5108810;28;20075;-68
2022/07/28 12:34:27;;;;;;;3.30;0.80;;;24.30;64.00;;;;;;5107588;28;20058;-68
2022/07/28 12:37:02;;;;;;;4.30;1.02;;;24.30;64.80;;;;;;5104633;28;20527;-68
2022/07/28 12:39:31;;;;;;;4.32;1.15;;;24.20;65.80;;;;;;5102930;28;20071;-68
2022/07/28 12:42:08;;;;;;;2.45;0.80;;;24.20;65.10;;;;;;5096671;28;20058;-68
2022/07/28 12:44:39;;;;;;;2.13;0.93;;;24.10;64.10;;;;;;5108784;28;20118;-68
2022/07/28 12:47:07;;;;;;;4.32;1.05;;;23.90;65.10;;;;;;5101801;28;20051;-68
2022/07/28 12:49:34;;;;;;;2.33;0.82;;;23.80;65.20;;;;;;5101215;28;20044;-69
2022/07/28 12:52:20;;;;;;;2.85;0.80;;;23.50;65.30;;;;;;5106775;28;20050;-69
2022/07/28 12:54:46;;;;;;;2.20;0.77;;;23.40;66.00;;;;;;5108307;28;20080;-67
2022/07/28 12:57:11;;;;;;;4.90;0.90;;;23.40;66.40;;;;;;5100917;28;20401;-65
2022/07/28 12:59:38;;;;;;;2.53;0.90;;;23.50;66.70;;;;;;5100002;28;20040;-65